Time;durP1;ratioP1;P1;durP2;ratioP2;P2;SDS_P1;SDS_P2;PMS_P1;PMS_P2;Temp;Humidity;BMP_temperature;BMP_pressure;BME280_temperature;BME280_humidity;BME280_pressure;Samples;Min_cycle;Max_cycle;Signal;HPM_P1;HPM_P2
2023/12/26 00:00:06;;;;;;;;;;;;;;;;;;5048471;28;4469;-61
2023/12/26 00:02:31;;;;;;;;;;;;;;;;;;5047768;28;4637;-61
2023/12/26 00:04:57;;;;;;;;;;;;;;;;;;5046884;28;4715;-60
2023/12/26 00:07:23;;;;;;;;;;;;;;;;;;5045708;28;3305;-61
2023/12/26 00:09:49;;;;;;;;;;;;;;;;;;5047493;28;5326;-61
2023/12/26 00:12:14;;;;;;;;;;;;;;;;;;5046930;28;5102;-61
2023/12/26 00:14:39;;;;;;;;;;;;;;;;;;5046368;28;5255;-60
2023/12/26 00:17:05;;;;;;;;;;;;;;;;;;5037782;28;4974;-62
2023/12/26 00:19:30;;;;;;;;;;;;;;;;;;5023744;28;4937;-61
2023/12/26 00:21:55;;;;;;;;;;;;;;;;;;5044381;28;3768;-61
2023/12/26 00:24:21;;;;;;;;;;;;;;;;;;5039700;28;5035;-61
2023/12/26 00:26:46;;;;;;;;;;;;;;;;;;5044078;28;5052;-60
2023/12/26 00:29:11;;;;;;;;;;;;;;;;;;5043438;28;4957;-60
2023/12/26 00:31:40;;;;;;;;;;;;;;;;;;5041737;28;4638;-61
2023/12/26 00:34:06;;;;;;;;;;;;;;;;;;5044570;28;5119;-60
2023/12/26 00:36:31;;;;;;;;;;;;;;;;;;5041701;28;5256;-61
2023/12/26 00:38:56;;;;;;;;;;;;;;;;;;5040928;28;5425;-61
2023/12/26 00:41:22;;;;;;;;;;;;;;;;;;5045764;28;5134;-61
2023/12/26 00:43:47;;;;;;;;;;;;;;;;;;5042456;28;5031;-61
2023/12/26 00:46:13;;;;;;;;;;;;;;;;;;5041713;28;3539;-61
2023/12/26 00:48:38;;;;;;;;;;;;;;;;;;5043187;28;4740;-61
2023/12/26 00:51:03;;;;;;;;;;;;;;;;;;5040797;28;4977;-61
2023/12/26 00:53:29;;;;;;;;;;;;;;;;;;5042095;28;4838;-62
2023/12/26 00:55:54;;;;;;;;;;;;;;;;;;5040855;28;5016;-61
2023/12/26 00:58:19;;;;;;;;;;;;;;;;;;5047895;28;3249;-63
2023/12/26 01:00:45;;;;;;;;;;;;;;;;;;5046743;28;4735;-61
2023/12/26 01:03:10;;;;;;;;;;;;;;;;;;5044167;28;5230;-61
2023/12/26 01:05:35;;;;;;;;;;;;;;;;;;5042069;28;4880;-62
2023/12/26 01:08:01;;;;;;;;;;;;;;;;;;5043629;28;5885;-62
2023/12/26 01:10:26;;;;;;;;;;;;;;;;;;5045978;28;5094;-61
2023/12/26 01:12:51;;;;;;;;;;;;;;;;;;5041701;28;3585;-62
2023/12/26 01:15:17;;;;;;;;;;;;;;;;;;5037803;28;4913;-61
2023/12/26 01:17:42;;;;;;;;;;;;;;;;;;5041709;28;5163;-61
2023/12/26 01:20:07;;;;;;;;;;;;;;;;;;5034273;28;5043;-62
2023/12/26 01:22:33;;;;;;;;;;;;;;;;;;5040580;28;6050;-62
2023/12/26 01:24:58;;;;;;;;;;;;;;;;;;5038429;28;3401;-62
2023/12/26 01:27:24;;;;;;;;;;;;;;;;;;5040495;28;5071;-61
2023/12/26 01:29:49;;;;;;;;;;;;;;;;;;5040660;28;5238;-61
2023/12/26 01:32:15;;;;;;;;;;;;;;;;;;5042481;28;4704;-61
2023/12/26 01:34:40;;;;;;;;;;;;;;;;;;5038278;28;5160;-61
2023/12/26 01:37:05;;;;;;;;;;;;;;;;;;5047861;28;3383;-61
2023/12/26 01:39:31;;;;;;;;;;;;;;;;;;5039875;28;4947;-60
2023/12/26 01:41:57;;;;;;;;;;;;;;;;;;5043465;28;4531;-60
2023/12/26 01:44:22;;;;;;;;;;;;;;;;;;5043228;28;5166;-60
2023/12/26 01:46:48;;;;;;;;;;;;;;;;;;5041480;28;5109;-61
2023/12/26 01:49:13;;;;;;;;;;;;;;;;;;5036858;28;3625;-61
2023/12/26 01:51:38;;;;;;;;;;;;;;;;;;5039953;28;5102;-60
2023/12/26 01:54:03;;;;;;;;;;;;;;;;;;5036016;28;4517;-61
2023/12/26 01:56:29;;;;;;;;;;;;;;;;;;5037565;28;5252;-61
2023/12/26 01:58:54;;;;;;;;;;;;;;;;;;5044039;28;4667;-60
2023/12/26 02:01:19;;;;;;;;;;;;;;;;;;5039823;28;3382;-62
2023/12/26 02:03:45;;;;;;;;;;;;;;;;;;5039640;28;5006;-60
2023/12/26 02:06:11;;;;;;;;;;;;;;;;;;5039719;28;4492;-61
2023/12/26 02:08:37;;;;;;;;;;;;;;;;;;5042943;28;5201;-61
2023/12/26 02:11:02;;;;;;;;;;;;;;;;;;5040536;28;5015;-61
2023/12/26 02:13:28;;;;;;;;;;;;;;;;;;5033462;28;5032;-63
2023/12/26 02:15:54;;;;;;;;;;;;;;;;;;5044352;28;3491;-60
2023/12/26 02:18:19;;;;;;;;;;;;;;;;;;5044401;28;5018;-61
2023/12/26 02:20:44;;;;;;;;;;;;;;;;;;5043661;28;4998;-61
2023/12/26 02:23:10;;;;;;;;;;;;;;;;;;5043751;28;4894;-62
2023/12/26 02:25:35;;;;;;;;;;;;;;;;;;5037345;28;5111;-61
2023/12/26 02:28:00;;;;;;;;;;;;;;;;;;5043231;28;3403;-61
2023/12/26 02:30:26;;;;;;;;;;;;;;;;;;5044963;28;5058;-61
2023/12/26 02:32:51;;;;;;;;;;;;;;;;;;5042910;28;5073;-61
2023/12/26 02:35:17;;;;;;;;;;;;;;;;;;5042496;28;5168;-62
2023/12/26 02:37:42;;;;;;;;;;;;;;;;;;5043593;28;4932;-62
2023/12/26 02:40:09;;;;;;;;;;;;;;;;;;5047290;28;1108;-61
2023/12/26 02:42:34;;;;;;;;;;;;;;;;;;5044002;28;4988;-62
2023/12/26 02:45:00;;;;;;;;;;;;;;;;;;5044858;28;4475;-61
2023/12/26 02:47:25;;;;;;;;;;;;;;;;;;5040822;28;5142;-62
2023/12/26 02:49:50;;;;;;;;;;;;;;;;;;5042505;28;5171;-60
2023/12/26 02:52:17;;;;;;;;;;;;;;;;;;5046815;28;1901;-60
2023/12/26 02:54:42;;;;;;;;;;;;;;;;;;5042501;28;5148;-60
2023/12/26 02:57:08;;;;;;;;;;;;;;;;;;5039220;28;5100;-59
2023/12/26 02:59:33;;;;;;;;;;;;;;;;;;5037858;28;5080;-62
2023/12/26 03:01:58;;;;;;;;;;;;;;;;;;5039509;28;5120;-61
2023/12/26 03:04:24;;;;;;;;;;;;;;;;;;5036038;28;3571;-60
2023/12/26 03:06:49;;;;;;;;;;;;;;;;;;5036431;28;4609;-61
2023/12/26 03:09:14;;;;;;;;;;;;;;;;;;5040114;28;4463;-61
2023/12/26 03:11:39;;;;;;;;;;;;;;;;;;5040724;28;4867;-62
2023/12/26 03:14:06;;;;;;;;;;;;;;;;;;5041064;28;5035;-60
2023/12/26 03:16:31;;;;;;;;;;;;;;;;;;5041112;28;5116;-61
2023/12/26 03:18:56;;;;;;;;;;;;;;;;;;5043463;28;3385;-61
2023/12/26 03:21:22;;;;;;;;;;;;;;;;;;5044852;28;4764;-61
2023/12/26 03:23:47;;;;;;;;;;;;;;;;;;5041716;28;5293;-62
2023/12/26 03:26:12;;;;;;;;;;;;;;;;;;5035264;28;5145;-61
2023/12/26 03:28:38;;;;;;;;;;;;;;;;;;5042015;28;5148;-62
2023/12/26 03:31:03;;;;;;;;;;;;;;;;;;5043716;28;4074;-61
2023/12/26 03:33:29;;;;;;;;;;;;;;;;;;5040604;28;5124;-61
2023/12/26 03:35:54;;;;;;;;;;;;;;;;;;5041485;28;5063;-60
2023/12/26 03:38:19;;;;;;;;;;;;;;;;;;5034449;28;5126;-60
2023/12/26 03:40:44;;;;;;;;;;;;;;;;;;5038435;28;4749;-60
2023/12/26 03:43:10;;;;;;;;;;;;;;;;;;5035642;28;3413;-61
2023/12/26 03:45:35;;;;;;;;;;;;;;;;;;5040591;28;4967;-62
2023/12/26 03:48:00;;;;;;;;;;;;;;;;;;5040578;28;5351;-61
2023/12/26 03:50:26;;;;;;;;;;;;;;;;;;5038876;28;4750;-61
2023/12/26 03:52:51;;;;;;;;;;;;;;;;;;5044091;28;5262;-62
2023/12/26 03:55:16;;;;;;;;;;;;;;;;;;5038478;28;3386;-61
2023/12/26 03:57:42;;;;;;;;;;;;;;;;;;5043034;28;5271;-61
2023/12/26 04:00:08;;;;;;;;;;;;;;;;;;5043264;28;5095;-62
2023/12/26 04:02:34;;;;;;;;;;;;;;;;;;5042015;28;4942;-61
2023/12/26 04:04:59;;;;;;;;;;;;;;;;;;5038266;28;5174;-62
2023/12/26 04:07:25;;;;;;;;;;;;;;;;;;5044392;28;3580;-60
2023/12/26 04:09:50;;;;;;;;;;;;;;;;;;5037233;28;5434;-61
2023/12/26 04:12:15;;;;;;;;;;;;;;;;;;5045655;28;4983;-61
2023/12/26 04:14:41;;;;;;;;;;;;;;;;;;5042773;28;5068;-60
2023/12/26 04:17:06;;;;;;;;;;;;;;;;;;5042553;28;5106;-61
2023/12/26 04:19:31;;;;;;;;;;;;;;;;;;5046729;28;5175;-60
2023/12/26 04:21:57;;;;;;;;;;;;;;;;;;5045202;28;3412;-62
2023/12/26 04:24:22;;;;;;;;;;;;;;;;;;5045470;28;5031;-61
2023/12/26 04:26:47;;;;;;;;;;;;;;;;;;5042883;28;5316;-60
2023/12/26 04:29:13;;;;;;;;;;;;;;;;;;5043916;28;5214;-60
2023/12/26 04:31:39;;;;;;;;;;;;;;;;;;5034260;28;5190;-60
2023/12/26 04:34:04;;;;;;;;;;;;;;;;;;5042347;28;5052;-60
2023/12/26 04:36:32;;;;;;;;;;;;;;;;;;5043838;28;5070;-60
2023/12/26 04:38:58;;;;;;;;;;;;;;;;;;5043891;28;5041;-61
2023/12/26 04:41:23;;;;;;;;;;;;;;;;;;5038480;28;5085;-60
2023/12/26 04:43:49;;;;;;;;;;;;;;;;;;5040982;28;5087;-61
2023/12/26 04:46:18;;;;;;;;;;;;;;;;;;5040829;28;3578;-60
2023/12/26 04:48:43;;;;;;;;;;;;;;;;;;5034489;28;4924;-62
2023/12/26 04:51:08;;;;;;;;;;;;;;;;;;5037126;28;5096;-61
2023/12/26 04:53:33;;;;;;;;;;;;;;;;;;5043498;28;4515;-60
2023/12/26 04:55:59;;;;;;;;;;;;;;;;;;5042088;28;4559;-61
2023/12/26 04:58:24;;;;;;;;;;;;;;;;;;5039939;28;3777;-60
2023/12/26 05:00:49;;;;;;;;;;;;;;;;;;5038451;28;4949;-61
2023/12/26 05:03:15;;;;;;;;;;;;;;;;;;5043760;28;5137;-60
2023/12/26 05:05:40;;;;;;;;;;;;;;;;;;5042345;28;4583;-60
2023/12/26 05:08:05;;;;;;;;;;;;;;;;;;5042379;28;5177;-60
2023/12/26 05:10:33;;;;;;;;;;;;;;;;;;5035647;28;4545;-62
2023/12/26 05:12:58;;;;;;;;;;;;;;;;;;5041738;28;3395;-63
2023/12/26 05:15:24;;;;;;;;;;;;;;;;;;5042275;28;5281;-61
2023/12/26 05:17:49;;;;;;;;;;;;;;;;;;5042455;28;5049;-61
2023/12/26 05:20:14;;;;;;;;;;;;;;;;;;5043189;28;4626;-62
2023/12/26 05:22:40;;;;;;;;;;;;;;;;;;5046290;28;5539;-62
2023/12/26 05:25:07;;;;;;;;;;;;;;;;;;5041886;28;3580;-61
2023/12/26 05:27:32;;;;;;;;;;;;;;;;;;5040690;28;5215;-62
2023/12/26 05:29:58;;;;;;;;;;;;;;;;;;5041155;28;5021;-61
2023/12/26 05:32:23;;;;;;;;;;;;;;;;;;5043898;28;4723;-61
2023/12/26 05:34:48;;;;;;;;;;;;;;;;;;5042054;28;5583;-62
2023/12/26 05:37:14;;;;;;;;;;;;;;;;;;5044739;28;3441;-61
2023/12/26 05:39:41;;;;;;;;;;;;;;;;;;5039211;28;5001;-62
2023/12/26 05:42:07;;;;;;;;;;;;;;;;;;5038604;28;5027;-61
2023/12/26 05:44:32;;;;;;;;;;;;;;;;;;5036051;28;4689;-61
2023/12/26 05:46:57;;;;;;;;;;;;;;;;;;5040966;28;5091;-61
2023/12/26 05:49:22;;;;;;;;;;;;;;;;;;5039128;28;3531;-61
2023/12/26 05:51:48;;;;;;;;;;;;;;;;;;5043498;28;4458;-62
2023/12/26 05:54:13;;;;;;;;;;;;;;;;;;5039243;28;4936;-61
2023/12/26 05:56:40;;;;;;;;;;;;;;;;;;5036043;28;5110;-61
2023/12/26 05:59:05;;;;;;;;;;;;;;;;;;5041289;28;4491;-61
2023/12/26 06:01:31;;;;;;;;;;;;;;;;;;5041146;28;5040;-62
2023/12/26 06:03:56;;;;;;;;;;;;;;;;;;5045491;28;3411;-62
2023/12/26 06:06:21;;;;;;;;;;;;;;;;;;5033175;28;5015;-63
2023/12/26 06:08:46;;;;;;;;;;;;;;;;;;5041792;28;5011;-61
2023/12/26 06:11:12;;;;;;;;;;;;;;;;;;5040889;28;5154;-61
2023/12/26 06:13:37;;;;;;;;;;;;;;;;;;5043105;28;4529;-61
2023/12/26 06:16:03;;;;;;;;;;;;;;;;;;5035639;28;3491;-61
2023/12/26 06:18:28;;;;;;;;;;;;;;;;;;5036177;28;5164;-61
2023/12/26 06:20:53;;;;;;;;;;;;;;;;;;5040659;28;4542;-62
2023/12/26 06:23:19;;;;;;;;;;;;;;;;;;5038004;28;4498;-62
2023/12/26 06:25:44;;;;;;;;;;;;;;;;;;5037714;28;4560;-61
2023/12/26 06:28:10;;;;;;;;;;;;;;;;;;5039424;28;3599;-60
2023/12/26 06:30:35;;;;;;;;;;;;;;;;;;5035282;28;4959;-61
2023/12/26 06:33:00;;;;;;;;;;;;;;;;;;5040299;28;4681;-61
2023/12/26 06:35:26;;;;;;;;;;;;;;;;;;5038388;28;5048;-61
2023/12/26 06:37:51;;;;;;;;;;;;;;;;;;5038755;28;5147;-61
2023/12/26 06:40:16;;;;;;;;;;;;;;;;;;5038964;28;3450;-62
2023/12/26 06:42:42;;;;;;;;;;;;;;;;;;5038813;28;5061;-61
2023/12/26 06:45:07;;;;;;;;;;;;;;;;;;5035188;28;5226;-62
2023/12/26 06:47:32;;;;;;;;;;;;;;;;;;5035994;28;5088;-61
2023/12/26 06:49:58;;;;;;;;;;;;;;;;;;5037567;28;4746;-62
2023/12/26 06:52:23;;;;;;;;;;;;;;;;;;5038889;28;3558;-61
2023/12/26 06:54:49;;;;;;;;;;;;;;;;;;5037077;28;4930;-62
2023/12/26 06:57:17;;;;;;;;;;;;;;;;;;5036782;28;5052;-62
2023/12/26 06:59:47;;;;;;;;;;;;;;;;;;5035785;28;5036;-62
2023/12/26 07:02:12;;;;;;;;;;;;;;;;;;5038576;28;5372;-62
2023/12/26 07:04:37;;;;;;;;;;;;;;;;;;5035636;28;4820;-61
2023/12/26 07:07:03;;;;;;;;;;;;;;;;;;5041144;28;3454;-60
2023/12/26 07:09:28;;;;;;;;;;;;;;;;;;5040293;28;4984;-62
2023/12/26 07:11:53;;;;;;;;;;;;;;;;;;5038460;28;4755;-62
2023/12/26 07:14:19;;;;;;;;;;;;;;;;;;5043063;28;5128;-61
2023/12/26 07:16:44;;;;;;;;;;;;;;;;;;5041652;28;4670;-62
2023/12/26 07:19:10;;;;;;;;;;;;;;;;;;5046239;28;3610;-61
2023/12/26 07:21:35;;;;;;;;;;;;;;;;;;5048691;28;6123;-61
2023/12/26 07:24:01;;;;;;;;;;;;;;;;;;5049572;28;4924;-62
2023/12/26 07:26:26;;;;;;;;;;;;;;;;;;5040791;28;5205;-60
2023/12/26 07:28:52;;;;;;;;;;;;;;;;;;5046313;28;5269;-63
2023/12/26 07:31:20;;;;;;;;;;;;;;;;;;5045317;28;3259;-61
2023/12/26 07:33:46;;;;;;;;;;;;;;;;;;5043865;28;5128;-62
2023/12/26 07:36:12;;;;;;;;;;;;;;;;;;5043903;28;4594;-61
2023/12/26 07:38:37;;;;;;;;;;;;;;;;;;5048161;28;5239;-62
2023/12/26 07:41:02;;;;;;;;;;;;;;;;;;5048113;28;4534;-61
2023/12/26 07:43:28;;;;;;;;;;;;;;;;;;5047831;28;5259;-61
2023/12/26 07:45:54;;;;;;;;;;;;;;;;;;5050261;28;1116;-61
2023/12/26 07:48:19;;;;;;;;;;;;;;;;;;5047773;28;5292;-61
2023/12/26 07:50:44;;;;;;;;;;;;;;;;;;5045519;28;5135;-62
2023/12/26 07:53:10;;;;;;;;;;;;;;;;;;5048716;28;5151;-62
2023/12/26 07:55:35;;;;;;;;;;;;;;;;;;5049713;28;4683;-62
2023/12/26 07:58:00;;;;;;;;;;;;;;;;;;5048385;28;2535;-61
2023/12/26 08:00:25;;;;;;;;;;;;;;;;;;5047965;28;4610;-62
2023/12/26 08:02:51;;;;;;;;;;;;;;;;;;5048585;28;4489;-62
2023/12/26 08:05:16;;;;;;;;;;;;;;;;;;5042848;28;4859;-62
2023/12/26 08:07:41;;;;;;;;;;;;;;;;;;5048065;28;5071;-61
2023/12/26 08:10:07;;;;;;;;;;;;;;;;;;5048200;28;1402;-61
2023/12/26 08:12:32;;;;;;;;;;;;;;;;;;5048096;28;4506;-63
2023/12/26 08:14:58;;;;;;;;;;;;;;;;;;5048725;28;5163;-61
2023/12/26 08:17:23;;;;;;;;;;;;;;;;;;5048683;28;5142;-61
2023/12/26 08:19:49;;;;;;;;;;;;;;;;;;5046779;28;4965;-61
2023/12/26 08:22:14;;;;;;;;;;;;;;;;;;5048116;28;3176;-59
2023/12/26 08:24:39;;;;;;;;;;;;;;;;;;5041162;28;4888;-61
2023/12/26 08:27:05;;;;;;;;;;;;;;;;;;5034014;28;4468;-60
2023/12/26 08:29:30;;;;;;;;;;;;;;;;;;5043107;28;5061;-61
2023/12/26 08:31:55;;;;;;;;;;;;;;;;;;5044986;28;5177;-62
2023/12/26 08:34:20;;;;;;;;;;;;;;;;;;5038138;28;5064;-62
2023/12/26 08:36:46;;;;;;;;;;;;;;;;;;5046109;28;4701;-62
2023/12/26 08:39:11;;;;;;;;;;;;;;;;;;5044730;28;5072;-62
2023/12/26 08:41:37;;;;;;;;;;;;;;;;;;5045836;28;5085;-62
2023/12/26 08:44:02;;;;;;;;;;;;;;;;;;5046456;28;5118;-62
2023/12/26 08:46:27;;;;;;;;;;;;;;;;;;5044017;28;5194;-63
2023/12/26 08:48:53;;;;;;;;;;;;;;;;;;5041393;28;3472;-61
2023/12/26 08:51:19;;;;;;;;;;;;;;;;;;5039672;28;5117;-61
2023/12/26 08:53:45;;;;;;;;;;;;;;;;;;5037244;28;5439;-59
2023/12/26 08:56:11;;;;;;;;;;;;;;;;;;5043290;28;4697;-60
2023/12/26 08:58:37;;;;;;;;;;;;;;;;;;5045997;28;5028;-62
2023/12/26 09:01:02;;;;;;;;;;;;;;;;;;5040844;28;3318;-62
2023/12/26 09:03:28;;;;;;;;;;;;;;;;;;5042933;28;5015;-60
2023/12/26 09:05:53;;;;;;;;;;;;;;;;;;5045838;28;5130;-61
2023/12/26 09:08:18;;;;;;;;;;;;;;;;;;5048012;28;5111;-61
2023/12/26 09:10:44;;;;;;;;;;;;;;;;;;5039901;28;5110;-61
2023/12/26 09:13:10;;;;;;;;;;;;;;;;;;5036465;28;3299;-60
2023/12/26 09:15:35;;;;;;;;;;;;;;;;;;5039316;28;4593;-59
2023/12/26 09:18:00;;;;;;;;;;;;;;;;;;5035252;28;4935;-61
2023/12/26 09:20:26;;;;;;;;;;;;;;;;;;5041257;28;5531;-59
2023/12/26 09:22:51;;;;;;;;;;;;;;;;;;5046175;28;5121;-60
2023/12/26 09:25:16;;;;;;;;;;;;;;;;;;5045288;28;3418;-60
2023/12/26 09:27:42;;;;;;;;;;;;;;;;;;5039746;28;5051;-60
2023/12/26 09:30:09;;;;;;;;;;;;;;;;;;5040808;28;5198;-60
2023/12/26 09:32:34;;;;;;;;;;;;;;;;;;5040046;28;5133;-60
2023/12/26 09:34:59;;;;;;;;;;;;;;;;;;5038535;28;5270;-60
2023/12/26 09:37:26;;;;;;;;;;;;;;;;;;5040433;28;5020;-62
2023/12/26 09:39:51;;;;;;;;;;;;;;;;;;5038885;28;3400;-60
2023/12/26 09:42:18;;;;;;;;;;;;;;;;;;5039433;28;5597;-60
2023/12/26 09:44:43;;;;;;;;;;;;;;;;;;5037093;28;5133;-61
2023/12/26 09:47:08;;;;;;;;;;;;;;;;;;5029237;28;5159;-60
2023/12/26 09:49:34;;;;;;;;;;;;;;;;;;5041229;28;5063;-60
2023/12/26 09:52:00;;;;;;;;;;;;;;;;;;5044507;28;3344;-61
2023/12/26 09:54:26;;;;;;;;;;;;;;;;;;5045057;28;4484;-60
2023/12/26 09:56:51;;;;;;;;;;;;;;;;;;5046800;28;5081;-61
2023/12/26 09:59:16;;;;;;;;;;;;;;;;;;5042430;28;5005;-61
2023/12/26 10:01:42;;;;;;;;;;;;;;;;;;5039323;28;4756;-61
2023/12/26 10:04:07;;;;;;;;;;;;;;;;;;5045463;28;3355;-61
2023/12/26 10:06:33;;;;;;;;;;;;;;;;;;5044679;28;5039;-61
2023/12/26 10:08:58;;;;;;;;;;;;;;;;;;5038461;28;5164;-61
2023/12/26 10:11:27;;;;;;;;;;;;;;;;;;5037349;28;5075;-61
2023/12/26 10:13:53;;;;;;;;;;;;;;;;;;5044511;28;5143;-61
2023/12/26 10:16:21;;;;;;;;;;;;;;;;;;5042154;28;1142;-61
2023/12/26 10:18:47;;;;;;;;;;;;;;;;;;5044462;28;5078;-61
2023/12/26 10:21:13;;;;;;;;;;;;;;;;;;5041933;28;5039;-61
2023/12/26 10:23:38;;;;;;;;;;;;;;;;;;5045780;28;5096;-60
2023/12/26 10:26:03;;;;;;;;;;;;;;;;;;5039692;28;5109;-60
2023/12/26 10:28:29;;;;;;;;;;;;;;;;;;5040655;28;5061;-60
2023/12/26 10:30:54;;;;;;;;;;;;;;;;;;5035305;28;3502;-59
2023/12/26 10:33:23;;;;;;;;;;;;;;;;;;5044390;28;5227;-59
2023/12/26 10:35:59;;;;;;;;;;;;;;;;;;5042644;28;5204;-60
2023/12/26 10:38:25;;;;;;;;;;;;;;;;;;5037371;28;4471;-60
2023/12/26 10:40:50;;;;;;;;;;;;;;;;;;5046474;28;5121;-61
2023/12/26 10:43:15;;;;;;;;;;;;;;;;;;5041251;28;1587;-61
2023/12/26 10:45:41;;;;;;;;;;;;;;;;;;5045959;28;5049;-61
2023/12/26 10:48:06;;;;;;;;;;;;;;;;;;5040593;28;5147;-61
2023/12/26 10:50:32;;;;;;;;;;;;;;;;;;5042660;28;5108;-61
2023/12/26 10:53:14;;;;;;;;;;;;;;;;;;5051093;28;5016;-60
2023/12/26 10:55:39;;;;;;;;;;;;;;;;;;5041259;28;4555;-61
2023/12/26 10:58:18;;;;;;;;;;;;;;;;;;5050794;28;1143;-60
2023/12/26 11:00:50;;;;;;;;;;;;;;;;;;5050765;28;5094;-61
2023/12/26 13:54:03;;;;;;;;;;;;;;;;;;5035705;28;5146;-62
2023/12/26 13:56:47;;;;;;;;;;;;;;;;;;5040391;28;5078;-61
2023/12/26 13:59:31;;;;;;;;;;;;;;;;;;5044529;28;5080;-61
2023/12/26 14:01:57;;;;;;;;;;;;;;;;;;5045377;28;5164;-61
2023/12/26 14:04:22;;;;;;;;;;;;;;;;;;5042400;28;3264;-61
2023/12/26 14:06:47;;;;;;;;;;;;;;;;;;5043379;28;5012;-61
2023/12/26 14:09:13;;;;;;;;;;;;;;;;;;5039290;28;5219;-61
2023/12/26 14:11:38;;;;;;;;;;;;;;;;;;5040083;28;5146;-60
2023/12/26 14:14:04;;;;;;;;;;;;;;;;;;5040380;28;5232;-61
2023/12/26 14:16:29;;;;;;;;;;;;;;;;;;5044952;28;5035;-61
2023/12/26 14:18:54;;;;;;;;;;;;;;;;;;5037265;28;3470;-61
2023/12/26 14:21:20;;;;;;;;;;;;;;;;;;5050013;28;5039;-62
2023/12/26 14:23:45;;;;;;;;;;;;;;;;;;5037785;28;5200;-60
2023/12/26 14:26:10;;;;;;;;;;;;;;;;;;5032248;28;5044;-61
2023/12/26 14:28:36;;;;;;;;;;;;;;;;;;5043350;28;4573;-61
2023/12/26 14:31:01;;;;;;;;;;;;;;;;;;5046409;28;3474;-60
2023/12/26 14:33:27;;;;;;;;;;;;;;;;;;5044094;28;5032;-61
2023/12/26 14:35:52;;;;;;;;;;;;;;;;;;5038464;28;5150;-62
2023/12/26 14:38:17;;;;;;;;;;;;;;;;;;5038732;28;5517;-61
2023/12/26 14:40:46;;;;;;;;;;;;;;;;;;5036239;28;4521;-62
2023/12/26 14:43:11;;;;;;;;;;;;;;;;;;5041211;28;3436;-61
2023/12/26 14:45:37;;;;;;;;;;;;;;;;;;5038944;28;5122;-62
2023/12/26 14:48:03;;;;;;;;;;;;;;;;;;5035012;28;4520;-61
2023/12/26 14:50:30;;;;;;;;;;;;;;;;;;5045430;28;5159;-61
2023/12/26 14:52:55;;;;;;;;;;;;;;;;;;5035344;28;4610;-61
2023/12/26 14:55:20;;;;;;;;;;;;;;;;;;5041680;28;3272;-61
2023/12/26 14:57:46;;;;;;;;;;;;;;;;;;5035183;28;5142;-60
2023/12/26 15:00:11;;;;;;;;;;;;;;;;;;5035110;28;5085;-61
2023/12/26 15:02:36;;;;;;;;;;;;;;;;;;5038484;28;5153;-64
2023/12/26 15:05:02;;;;;;;;;;;;;;;;;;5035354;28;5289;-59
2023/12/26 15:07:27;;;;;;;;;;;;;;;;;;5033920;28;5198;-60
2023/12/26 15:09:52;;;;;;;;;;;;;;;;;;5015410;28;3559;-60
2023/12/26 15:12:18;;;;;;;;;;;;;;;;;;5045619;28;4711;-60
2023/12/26 15:14:43;;;;;;;;;;;;;;;;;;5040508;28;5075;-60
2023/12/26 15:17:08;;;;;;;;;;;;;;;;;;5046555;28;5023;-61
2023/12/26 15:19:34;;;;;;;;;;;;;;;;;;5044561;28;4543;-60
2023/12/26 15:22:00;;;;;;;;;;;;;;;;;;5046705;28;1127;-60
2023/12/26 15:24:25;;;;;;;;;;;;;;;;;;5041286;28;5182;-60
2023/12/26 15:26:50;;;;;;;;;;;;;;;;;;5031017;28;4866;-60
2023/12/26 15:29:16;;;;;;;;;;;;;;;;;;5008250;28;5245;-60
2023/12/26 15:31:42;;;;;;;;;;;;;;;;;;5021441;28;4569;-60
2023/12/26 15:34:07;;;;;;;;;;;;;;;;;;5015019;28;4994;-60
2023/12/26 15:36:33;;;;;;;;;;;;;;;;;;5008721;28;4552;-64
2023/12/26 15:38:58;;;;;;;;;;;;;;;;;;5019969;28;5240;-59
2023/12/26 15:41:24;;;;;;;;;;;;;;;;;;5026542;28;4554;-62
2023/12/26 15:43:50;;;;;;;;;;;;;;;;;;5021211;28;4690;-61
2023/12/26 15:46:18;;;;;;;;;;;;;;;;;;5024395;28;3333;-61
2023/12/26 15:48:44;;;;;;;;;;;;;;;;;;5020297;28;4622;-60
2023/12/26 15:51:10;;;;;;;;;;;;;;;;;;5019465;28;4967;-61
2023/12/26 15:53:35;;;;;;;;;;;;;;;;;;5027747;28;5341;-62
2023/12/26 15:56:00;;;;;;;;;;;;;;;;;;5017540;28;5085;-67
2023/12/26 15:58:26;;;;;;;;;;;;;;;;;;5017487;28;5064;-64
2023/12/26 16:00:51;;;;;;;;;;;;;;;;;;5026782;28;1222;-63
2023/12/26 16:03:17;;;;;;;;;;;;;;;;;;5022427;28;5065;-65
2023/12/26 16:05:42;;;;;;;;;;;;;;;;;;5017680;28;5014;-67
2023/12/26 16:08:10;;;;;;;;;;;;;;;;;;5025592;28;5001;-61
2023/12/26 16:10:35;;;;;;;;;;;;;;;;;;5026729;28;5090;-64
2023/12/26 16:13:01;;;;;;;;;;;;;;;;;;5017027;28;3859;-64
2023/12/26 16:15:26;;;;;;;;;;;;;;;;;;5024100;28;4556;-65
2023/12/26 16:17:51;;;;;;;;;;;;;;;;;;5027194;28;4548;-60
2023/12/26 16:20:16;;;;;;;;;;;;;;;;;;5029628;28;4454;-63
2023/12/26 16:22:42;;;;;;;;;;;;;;;;;;5021530;28;5262;-64
2023/12/26 16:25:07;;;;;;;;;;;;;;;;;;5023599;28;3384;-61
2023/12/26 16:27:33;;;;;;;;;;;;;;;;;;5021061;28;5210;-62
2023/12/26 16:29:59;;;;;;;;;;;;;;;;;;5023014;28;5111;-62
2023/12/26 16:32:24;;;;;;;;;;;;;;;;;;5025360;28;5100;-61
2023/12/26 16:34:49;;;;;;;;;;;;;;;;;;5015223;28;5200;-62
2023/12/26 16:37:15;;;;;;;;;;;;;;;;;;5025136;28;1232;-61
2023/12/26 16:39:40;;;;;;;;;;;;;;;;;;5022579;28;4879;-61
2023/12/26 16:42:08;;;;;;;;;;;;;;;;;;5028443;28;4679;-63
2023/12/26 16:44:36;;;;;;;;;;;;;;;;;;5025962;28;5156;-62
2023/12/26 16:47:01;;;;;;;;;;;;;;;;;;5005365;28;5163;-63
2023/12/26 16:49:26;;;;;;;;;;;;;;;;;;5018893;28;5047;-62
2023/12/26 16:51:51;;;;;;;;;;;;;;;;;;5015961;28;4018;-63
2023/12/26 16:54:17;;;;;;;;;;;;;;;;;;5018091;28;5199;-60
2023/12/26 16:56:42;;;;;;;;;;;;;;;;;;5024522;28;5020;-62
2023/12/26 16:59:07;;;;;;;;;;;;;;;;;;5025859;28;5157;-63
2023/12/26 17:01:33;;;;;;;;;;;;;;;;;;5018632;28;4992;-61
2023/12/26 17:03:58;;;;;;;;;;;;;;;;;;5005233;28;3765;-62
2023/12/26 17:06:24;;;;;;;;;;;;;;;;;;5006911;28;5418;-65
2023/12/26 17:08:49;;;;;;;;;;;;;;;;;;5018762;28;4993;-60
2023/12/26 17:11:16;;;;;;;;;;;;;;;;;;5020711;28;5090;-64
2023/12/26 17:13:41;;;;;;;;;;;;;;;;;;5015919;28;5180;-63
2023/12/26 17:16:13;;;;;;;;;;;;;;;;;;5024479;28;3430;-64
2023/12/26 17:18:39;;;;;;;;;;;;;;;;;;5008409;28;4710;-62
2023/12/26 17:21:05;;;;;;;;;;;;;;;;;;5021601;28;5033;-60
2023/12/26 17:23:32;;;;;;;;;;;;;;;;;;5021987;28;4526;-63
2023/12/26 17:25:57;;;;;;;;;;;;;;;;;;5027433;28;5067;-63
2023/12/26 17:28:22;;;;;;;;;;;;;;;;;;5036950;28;3370;-60
2023/12/26 17:30:48;;;;;;;;;;;;;;;;;;5044766;28;4852;-62
2023/12/26 17:33:13;;;;;;;;;;;;;;;;;;5045114;28;5086;-63
2023/12/26 17:35:38;;;;;;;;;;;;;;;;;;5041754;28;5310;-68
2023/12/26 17:38:04;;;;;;;;;;;;;;;;;;5038535;28;4556;-65
2023/12/26 17:40:29;;;;;;;;;;;;;;;;;;5038597;28;4666;-65
2023/12/26 17:42:55;;;;;;;;;;;;;;;;;;5044763;28;2458;-66
2023/12/26 17:45:20;;;;;;;;;;;;;;;;;;5044684;28;5142;-65
2023/12/26 17:47:45;;;;;;;;;;;;;;;;;;5040593;28;5217;-61
2023/12/26 17:50:10;;;;;;;;;;;;;;;;;;5035940;28;5108;-63
2023/12/26 17:52:37;;;;;;;;;;;;;;;;;;5039282;28;5146;-61
2023/12/26 17:55:02;;;;;;;;;;;;;;;;;;5041667;28;3597;-63
2023/12/26 17:57:28;;;;;;;;;;;;;;;;;;5040807;28;4544;-62
2023/12/26 17:59:53;;;;;;;;;;;;;;;;;;5040880;28;5057;-63
2023/12/26 18:02:18;;;;;;;;;;;;;;;;;;5043873;28;4535;-62
2023/12/26 18:04:43;;;;;;;;;;;;;;;;;;5030752;28;5054;-60
2023/12/26 18:07:09;;;;;;;;;;;;;;;;;;5042348;28;3458;-61
2023/12/26 18:09:35;;;;;;;;;;;;;;;;;;5044275;28;4729;-61
2023/12/26 18:12:01;;;;;;;;;;;;;;;;;;5035540;28;5189;-68
2023/12/26 18:14:26;;;;;;;;;;;;;;;;;;5049008;28;5181;-71
2023/12/26 18:16:52;;;;;;;;;;;;;;;;;;5047704;28;4511;-69
2023/12/26 18:19:17;;;;;;;;;;;;;;;;;;5046261;28;2346;-68
2023/12/26 18:21:44;;;;;;;;;;;;;;;;;;5047083;28;4977;-67
2023/12/26 18:24:11;;;;;;;;;;;;;;;;;;5042952;28;4591;-64
2023/12/26 18:26:36;;;;;;;;;;;;;;;;;;5034189;28;4553;-66
2023/12/26 18:29:01;;;;;;;;;;;;;;;;;;5045771;28;5055;-65
2023/12/26 18:31:27;;;;;;;;;;;;;;;;;;5041665;28;5083;-69
2023/12/26 18:33:52;;;;;;;;;;;;;;;;;;5043594;28;5160;-66
2023/12/26 18:36:18;;;;;;;;;;;;;;;;;;5041057;28;5081;-64
2023/12/26 18:38:43;;;;;;;;;;;;;;;;;;5028619;28;5321;-65
2023/12/26 18:41:09;;;;;;;;;;;;;;;;;;5040094;28;5198;-65
2023/12/26 18:43:34;;;;;;;;;;;;;;;;;;5043422;28;4535;-67
2023/12/26 18:46:00;;;;;;;;;;;;;;;;;;5041026;28;3772;-68
2023/12/26 18:48:27;;;;;;;;;;;;;;;;;;5042262;28;5030;-68
2023/12/26 18:50:53;;;;;;;;;;;;;;;;;;5037273;28;4732;-67
2023/12/26 18:53:19;;;;;;;;;;;;;;;;;;5045306;28;5302;-66
2023/12/26 18:55:44;;;;;;;;;;;;;;;;;;5044576;28;5272;-74
2023/12/26 18:58:09;;;;;;;;;;;;;;;;;;5047974;28;2666;-74
2023/12/26 19:00:34;;;;;;;;;;;;;;;;;;5045402;28;5136;-68
2023/12/26 19:03:01;;;;;;;;;;;;;;;;;;5043644;28;4726;-71
2023/12/26 19:05:26;;;;;;;;;;;;;;;;;;5036037;28;4769;-68
2023/12/26 19:07:52;;;;;;;;;;;;;;;;;;5034957;28;5285;-68
2023/12/26 19:10:17;;;;;;;;;;;;;;;;;;5033245;28;3464;-68
2023/12/26 19:12:46;;;;;;;;;;;;;;;;;;5047589;28;4449;-67
2023/12/26 19:15:12;;;;;;;;;;;;;;;;;;5043422;28;5164;-67
2023/12/26 19:17:37;;;;;;;;;;;;;;;;;;5048537;28;4577;-67
2023/12/26 19:20:04;;;;;;;;;;;;;;;;;;5047782;28;5122;-67
2023/12/26 19:22:29;;;;;;;;;;;;;;;;;;5036319;28;4705;-67
2023/12/26 19:24:55;;;;;;;;;;;;;;;;;;5045095;28;1616;-67
2023/12/26 19:27:22;;;;;;;;;;;;;;;;;;5024400;28;4657;-67
2023/12/26 19:29:47;;;;;;;;;;;;;;;;;;5009882;28;5079;-67
2023/12/26 19:32:13;;;;;;;;;;;;;;;;;;5015308;28;4600;-67
2023/12/26 19:34:38;;;;;;;;;;;;;;;;;;5020562;28;5113;-67
2023/12/26 19:37:03;;;;;;;;;;;;;;;;;;5021600;28;3463;-68
2023/12/26 19:39:29;;;;;;;;;;;;;;;;;;5024072;28;4893;-68
2023/12/26 19:41:54;;;;;;;;;;;;;;;;;;5025628;28;5134;-68